createdAt,value
2019-04-04T00:01:25.626Z,15.97
2019-04-04T00:03:53.637Z,16.27
2019-04-04T00:06:21.608Z,15.60
2019-04-04T00:08:49.596Z,16.53
2019-04-04T00:11:17.656Z,17.00
2019-04-04T00:13:45.741Z,16.93
2019-04-04T00:16:15.655Z,17.60
2019-04-04T00:18:43.436Z,16.17
2019-04-04T00:21:11.390Z,16.73
2019-04-04T00:23:39.462Z,16.90
2019-04-04T00:26:10.483Z,16.93
2019-04-04T00:28:37.241Z,16.40
2019-04-04T00:31:05.225Z,15.43
2019-04-04T00:33:33.266Z,16.30
2019-04-04T00:36:02.675Z,16.50
2019-04-04T00:38:31.066Z,16.47
2019-04-04T00:40:59.138Z,17.07
2019-04-04T00:43:27.202Z,17.97
2019-04-04T00:45:55.286Z,16.67
2019-04-04T00:48:23.253Z,16.33
2019-04-04T00:50:51.241Z,16.90
2019-04-04T00:53:19.564Z,17.80
2019-04-04T00:55:47.647Z,16.73
2019-04-04T00:58:15.715Z,17.77
2019-04-04T01:00:43.843Z,17.00
2019-04-04T01:03:11.862Z,17.60
2019-04-04T01:05:39.982Z,17.00
2019-04-04T01:08:08.013Z,18.10
2019-04-04T01:10:36.508Z,17.90
2019-04-04T01:13:04.553Z,16.53
2019-04-04T01:15:32.544Z,17.27
2019-04-04T01:18:00.517Z,18.30
2019-04-04T01:20:28.585Z,17.53
2019-04-04T01:22:56.742Z,19.20
2019-04-04T01:25:24.842Z,18.10
2019-04-04T01:27:52.876Z,17.63
2019-04-04T01:30:20.962Z,17.57
2019-04-04T01:32:49.054Z,18.60
2019-04-04T01:35:17.112Z,19.10
2019-04-04T01:37:45.198Z,18.20
2019-04-04T01:40:13.321Z,19.60
2019-04-04T01:42:41.408Z,18.60
2019-04-04T01:45:12.878Z,18.80
2019-04-04T01:47:39.180Z,19.57
2019-04-04T01:50:07.267Z,19.20
2019-04-04T01:52:35.641Z,19.17
2019-04-04T01:55:04.173Z,19.97
2019-04-04T01:57:32.379Z,19.13
2019-04-04T02:00:00.387Z,18.90
2019-04-04T02:02:28.450Z,18.60
2019-04-04T02:04:56.482Z,18.70
2019-04-04T02:07:24.553Z,19.20
2019-04-04T02:09:52.541Z,19.00
2019-04-04T02:12:20.538Z,19.37
2019-04-04T02:14:48.590Z,18.70
2019-04-04T02:17:16.651Z,19.90
2019-04-04T02:19:44.639Z,19.60
2019-04-04T02:22:12.713Z,19.20
2019-04-04T02:24:40.766Z,19.03
2019-04-04T02:27:09.147Z,19.57
2019-04-04T02:29:37.319Z,20.37
2019-04-04T02:32:09.381Z,19.80
2019-04-04T02:34:38.391Z,19.30
2019-04-04T02:37:06.437Z,18.20
2019-04-04T02:39:35.365Z,18.93
2019-04-04T02:42:04.517Z,18.50
2019-04-04T02:44:33.160Z,19.00
2019-04-04T02:47:01.293Z,18.60
2019-04-04T02:49:29.631Z,18.80
2019-04-04T02:51:57.642Z,17.13
2019-04-04T02:54:25.886Z,18.60
2019-04-04T02:56:53.894Z,19.73
2019-04-04T02:59:22.198Z,18.60
2019-04-04T03:01:50.327Z,19.37
2019-04-04T03:04:18.437Z,20.10
2019-04-04T03:06:46.495Z,19.30
2019-04-04T03:09:14.577Z,20.17
2019-04-04T03:11:43.661Z,19.77
2019-04-04T03:14:11.752Z,19.40
2019-04-04T03:16:39.679Z,19.80
2019-04-04T03:19:11.081Z,20.80
2019-04-04T03:21:37.410Z,20.40
2019-04-04T03:24:06.513Z,19.03
2019-04-04T03:26:35.149Z,20.50
2019-04-04T03:29:05.551Z,20.03
2019-04-04T03:31:37.285Z,20.07
2019-04-04T03:34:08.950Z,20.00
2019-04-04T03:36:33.864Z,20.40
2019-04-04T03:39:01.964Z,19.80
2019-04-04T03:41:30.695Z,20.00
2019-04-04T03:43:59.641Z,20.47
2019-04-04T03:46:27.744Z,19.80
2019-04-04T03:48:55.789Z,20.60
2019-04-04T03:51:23.892Z,20.57
2019-04-04T03:53:54.776Z,19.87
2019-04-04T03:56:22.864Z,21.33
2019-04-04T03:58:50.946Z,20.07
2019-04-04T04:01:18.998Z,20.80
2019-04-04T04:03:47.058Z,21.70
2019-04-04T04:06:15.047Z,21.67
2019-04-04T04:08:43.099Z,20.23
2019-04-04T04:11:11.124Z,19.73
2019-04-04T04:13:39.137Z,22.10
2019-04-04T04:16:07.125Z,20.43
2019-04-04T04:18:35.114Z,19.73
2019-04-04T04:21:03.163Z,20.33
2019-04-04T04:23:31.245Z,21.53
2019-04-04T04:25:59.319Z,20.27
2019-04-04T04:28:27.350Z,22.10
2019-04-04T04:30:55.528Z,20.67
2019-04-04T04:33:23.525Z,22.27
2019-04-04T04:35:51.598Z,20.47
2019-04-04T04:38:19.670Z,20.10
2019-04-04T04:40:48.165Z,18.90
2019-04-04T04:43:16.270Z,20.10
2019-04-04T04:45:45.117Z,19.30
2019-04-04T04:48:13.210Z,20.63
2019-04-04T04:50:41.249Z,20.20
2019-04-04T04:53:09.261Z,19.47
2019-04-04T04:55:37.316Z,19.57
2019-04-04T04:58:09.780Z,18.60
2019-04-04T05:00:35.145Z,18.27
2019-04-04T05:03:03.160Z,20.70
2019-04-04T05:05:32.002Z,20.10
2019-04-04T05:07:59.978Z,18.10
2019-04-04T05:10:27.984Z,20.03
2019-04-04T05:12:55.947Z,19.97
2019-04-04T05:15:23.998Z,19.30
2019-04-04T05:17:52.306Z,18.57
2019-04-04T05:20:20.353Z,19.80
2019-04-04T05:22:48.535Z,19.40
2019-04-04T05:25:16.600Z,18.70
2019-04-04T05:27:44.586Z,18.90
2019-04-04T05:30:15.805Z,19.20
2019-04-04T05:32:42.364Z,18.13
2019-04-04T05:35:10.448Z,20.10
2019-04-04T05:37:39.030Z,18.73
2019-04-04T05:40:07.586Z,18.50
2019-04-04T05:42:35.662Z,19.30
2019-04-04T05:45:03.984Z,18.57
2019-04-04T05:47:32.241Z,18.60
2019-04-04T05:50:00.406Z,19.23
2019-04-04T05:52:30.509Z,19.47
2019-04-04T05:54:58.560Z,18.47
2019-04-04T05:57:26.559Z,18.57
2019-04-04T05:59:55.929Z,19.07
2019-04-04T06:02:24.135Z,19.00
2019-04-04T06:04:55.135Z,20.77
2019-04-04T06:07:21.810Z,19.43
2019-04-04T06:09:49.812Z,19.10
2019-04-04T06:12:17.776Z,20.00
2019-04-04T06:14:46.112Z,19.57
2019-04-04T06:17:14.272Z,19.50
2019-04-04T06:19:44.343Z,21.10
2019-04-04T06:22:11.985Z,18.50
2019-04-04T06:24:39.942Z,21.10
2019-04-04T06:27:09.108Z,21.23
2019-04-04T06:29:37.732Z,20.43
2019-04-04T06:32:05.699Z,20.43
2019-04-04T06:34:33.746Z,19.80
2019-04-04T06:37:01.753Z,18.90
2019-04-04T06:39:31.262Z,18.43
2019-04-04T06:42:02.880Z,19.10
2019-04-04T06:44:29.017Z,18.80
2019-04-04T06:46:57.084Z,18.50
2019-04-04T06:49:25.178Z,18.20
2019-04-04T06:51:53.210Z,18.90
2019-04-04T06:54:25.003Z,19.13
2019-04-04T06:56:50.932Z,19.40
2019-04-04T06:59:18.980Z,19.10
2019-04-04T07:01:46.966Z,16.97
2019-04-04T07:04:17.177Z,18.97
2019-04-04T07:06:44.711Z,17.97
2019-04-04T07:09:13.550Z,17.77
2019-04-04T07:11:41.571Z,18.33
2019-04-04T07:14:09.574Z,18.47
2019-04-04T07:16:37.523Z,18.10
2019-04-04T07:19:07.863Z,18.07
2019-04-04T07:21:35.209Z,18.57
2019-04-04T07:24:03.305Z,18.47
2019-04-04T07:26:31.341Z,18.60
2019-04-04T07:28:59.332Z,18.83
2019-04-04T07:31:27.293Z,18.10
2019-04-04T07:33:55.248Z,17.50
2019-04-04T07:36:23.240Z,19.20
2019-04-04T07:38:51.314Z,19.53
2019-04-04T07:41:19.369Z,19.77
2019-04-04T07:43:49.309Z,18.90
2019-04-04T07:46:17.270Z,20.10
2019-04-04T07:48:45.440Z,20.53
2019-04-04T07:51:13.412Z,18.90
2019-04-04T07:53:41.377Z,20.60
2019-04-04T07:56:09.381Z,19.30
2019-04-04T07:58:37.420Z,18.60
2019-04-04T08:01:05.479Z,18.40
2019-04-04T08:03:33.534Z,21.30
2019-04-04T08:06:01.636Z,23.17
2019-04-04T08:08:29.667Z,19.70
2019-04-04T08:10:58.073Z,19.77
2019-04-04T08:13:26.198Z,18.73
2019-04-04T08:15:54.188Z,20.60
2019-04-04T08:18:22.199Z,19.47
2019-04-04T08:20:50.247Z,21.83
2019-04-04T08:23:18.246Z,19.00
2019-04-04T08:25:46.283Z,19.00
2019-04-04T08:28:14.264Z,18.20
2019-04-04T08:30:42.331Z,19.20
2019-04-04T08:33:10.324Z,19.23
2019-04-04T08:35:38.369Z,19.67
2019-04-04T08:38:06.420Z,20.00
2019-04-04T08:40:34.475Z,19.70
2019-04-04T08:43:02.482Z,19.83
2019-04-04T08:45:30.452Z,20.17
2019-04-04T08:47:58.450Z,18.67
2019-04-04T08:50:26.483Z,17.53
2019-04-04T08:52:54.449Z,19.57
2019-04-04T08:55:22.443Z,18.93
2019-04-04T08:57:50.502Z,19.30
2019-04-04T09:00:18.676Z,18.67
2019-04-04T09:02:46.676Z,17.40
2019-04-04T09:05:15.807Z,14.73
2019-04-04T09:07:44.097Z,15.20
2019-04-04T09:10:12.210Z,15.23
2019-04-04T09:12:40.262Z,15.60
2019-04-04T09:15:08.450Z,15.90
2019-04-04T09:17:36.423Z,15.30
2019-04-04T09:20:05.618Z,14.80
2019-04-04T09:22:33.699Z,16.10
2019-04-04T09:25:01.846Z,15.97
2019-04-04T09:27:29.817Z,15.63
2019-04-04T09:29:57.836Z,16.20
2019-04-04T09:32:25.845Z,15.53
2019-04-04T09:34:53.887Z,15.60
2019-04-04T09:37:21.910Z,17.23
2019-04-04T09:39:50.010Z,23.53
2019-04-04T09:42:18.042Z,17.70
2019-04-04T09:44:46.119Z,15.70
2019-04-04T09:47:14.205Z,15.23
2019-04-04T09:49:42.313Z,18.70
2019-04-04T09:52:10.341Z,16.37
2019-04-04T09:54:38.339Z,14.97
2019-04-04T09:57:06.393Z,17.00
2019-04-04T09:59:34.441Z,12.77
2019-04-04T10:02:02.499Z,15.23
2019-04-04T10:04:30.501Z,13.63
2019-04-04T10:06:58.960Z,17.40
2019-04-04T10:09:27.021Z,14.47
2019-04-04T10:11:54.994Z,16.00
2019-04-04T10:14:23.003Z,17.57
2019-04-04T10:16:51.043Z,15.13
2019-04-04T10:19:19.017Z,13.70
2019-04-04T10:21:46.987Z,14.50
2019-04-04T10:24:15.036Z,15.10
2019-04-04T10:26:43.037Z,15.27
2019-04-04T10:29:11.084Z,12.43
2019-04-04T10:31:39.055Z,16.00
2019-04-04T10:34:07.473Z,13.57
2019-04-04T10:36:35.527Z,14.67
2019-04-04T10:39:05.465Z,13.83
2019-04-04T10:41:33.488Z,18.50
2019-04-04T10:44:01.468Z,16.20
2019-04-04T10:46:29.556Z,13.70
2019-04-04T10:48:57.528Z,13.63
2019-04-04T10:51:25.598Z,13.00
2019-04-04T10:53:53.633Z,14.77
2019-04-04T10:56:21.604Z,13.33
2019-04-04T10:58:49.584Z,13.57
2019-04-04T11:01:17.598Z,13.77
2019-04-04T11:03:45.629Z,12.90
2019-04-04T11:06:13.713Z,13.50
2019-04-04T11:08:41.793Z,14.13
2019-04-04T11:11:09.862Z,15.20
2019-04-04T11:13:37.929Z,12.50
2019-04-04T11:16:05.920Z,13.00
2019-04-04T11:18:33.973Z,13.23
2019-04-04T11:21:02.031Z,13.90
2019-04-04T11:23:30.116Z,15.87
2019-04-04T11:25:58.173Z,14.33
2019-04-04T11:28:26.254Z,13.83
2019-04-04T11:30:54.233Z,13.83
2019-04-04T11:33:22.164Z,15.77
2019-04-04T11:35:50.153Z,14.90
2019-04-04T11:38:18.221Z,13.80
2019-04-04T11:40:46.374Z,13.90
2019-04-04T11:43:14.497Z,14.90
2019-04-04T11:45:42.476Z,13.70
2019-04-04T11:48:10.525Z,13.80
2019-04-04T11:50:39.872Z,14.37
2019-04-04T11:53:07.991Z,13.90
2019-04-04T11:55:35.969Z,13.40
2019-04-04T11:58:03.965Z,14.50
2019-04-04T12:00:34.540Z,14.80
2019-04-04T12:03:02.532Z,14.20
2019-04-04T12:05:30.632Z,16.80
2019-04-04T12:07:58.646Z,14.90
2019-04-04T12:10:26.646Z,14.17
2019-04-04T12:12:54.681Z,14.17
2019-04-04T12:15:22.752Z,13.50
2019-04-04T12:17:50.729Z,14.93
2019-04-04T12:20:20.049Z,14.70
2019-04-04T12:22:48.129Z,13.90
2019-04-04T12:25:16.734Z,14.33
2019-04-04T12:27:44.769Z,13.30
2019-04-04T12:30:12.943Z,16.20
2019-04-04T12:32:41.014Z,14.70
2019-04-04T12:35:09.011Z,14.40
2019-04-04T12:37:37.067Z,16.00
2019-04-04T12:40:05.461Z,14.60
2019-04-04T12:42:33.489Z,18.53
2019-04-04T12:45:01.585Z,14.70
2019-04-04T12:47:29.765Z,14.70
2019-04-04T12:49:57.834Z,21.40
2019-04-04T12:52:25.877Z,23.50
2019-04-04T12:54:53.874Z,15.60
2019-04-04T12:57:22.020Z,27.80
2019-04-04T12:59:50.035Z,15.90
2019-04-04T13:02:18.073Z,15.60
2019-04-04T13:04:46.064Z,15.40
2019-04-04T13:07:14.171Z,15.70
2019-04-04T13:09:42.204Z,15.80
2019-04-04T13:12:10.309Z,16.20
2019-04-04T13:14:38.423Z,16.47
2019-04-04T13:17:06.414Z,15.37
2019-04-04T13:19:34.497Z,15.53
2019-04-04T13:22:02.617Z,15.87
2019-04-04T13:24:31.584Z,15.93
2019-04-04T13:27:00.363Z,18.03
2019-04-04T13:29:29.028Z,16.03
2019-04-04T13:31:57.680Z,15.63
2019-04-04T13:34:26.317Z,15.50
2019-04-04T13:36:54.924Z,15.87
2019-04-04T13:39:23.209Z,15.17
2019-04-04T13:41:51.679Z,14.60
2019-04-04T13:44:21.405Z,14.90
2019-04-04T13:46:50.463Z,15.30
2019-04-04T13:49:19.099Z,14.90
2019-04-04T13:51:47.379Z,14.30
2019-04-04T13:54:15.962Z,15.87
2019-04-04T13:56:45.619Z,14.80
2019-04-04T13:59:14.282Z,14.10
2019-04-04T14:01:43.160Z,14.63
2019-04-04T14:04:11.973Z,14.23
2019-04-04T14:06:40.508Z,14.07
2019-04-04T14:09:12.061Z,13.03
2019-04-04T14:11:41.334Z,13.30
2019-04-04T14:14:10.302Z,13.57
2019-04-04T14:16:38.340Z,13.83
2019-04-04T14:19:06.376Z,14.07
2019-04-04T14:21:34.388Z,15.10
2019-04-04T14:24:12.915Z,14.33
2019-04-04T14:26:33.099Z,13.57
2019-04-04T14:29:03.686Z,15.33
2019-04-04T14:31:30.919Z,15.30
2019-04-04T14:33:58.851Z,15.57
2019-04-04T14:36:26.892Z,14.27
2019-04-04T14:38:54.895Z,13.53
2019-04-04T14:41:22.949Z,14.20
2019-04-04T14:43:51.432Z,14.83
2019-04-04T14:46:19.410Z,13.70
2019-04-04T14:48:47.468Z,13.77
2019-04-04T14:51:15.486Z,14.40
2019-04-04T14:53:43.690Z,13.50
2019-04-04T14:56:11.696Z,13.27
2019-04-04T14:58:39.785Z,12.80
2019-04-04T15:01:07.908Z,13.07
2019-04-04T15:03:35.901Z,12.90
2019-04-04T15:06:03.973Z,12.70
2019-04-04T15:08:32.034Z,12.30
2019-04-04T15:11:00.057Z,13.37
2019-04-04T15:13:28.087Z,12.33
2019-04-04T15:16:12.705Z,12.87
2019-04-04T15:18:41.645Z,13.83
2019-04-04T15:21:10.785Z,11.60
2019-04-04T15:23:40.045Z,11.93
2019-04-04T15:26:09.873Z,13.33
2019-04-04T15:28:39.462Z,11.73
2019-04-04T15:31:08.381Z,11.60
2019-04-04T15:33:37.438Z,11.70
2019-04-04T15:36:06.277Z,11.37
2019-04-04T15:38:35.371Z,11.43
2019-04-04T15:41:04.288Z,11.73
2019-04-04T15:43:33.116Z,11.50
2019-04-04T15:46:01.188Z,11.30
2019-04-04T15:48:29.235Z,11.17
2019-04-04T15:50:57.218Z,11.50
2019-04-04T15:53:25.321Z,11.60
2019-04-04T15:55:53.348Z,11.83
2019-04-04T15:58:21.349Z,11.60
2019-04-04T16:00:50.367Z,12.07
2019-04-04T16:03:18.804Z,12.43
2019-04-04T16:05:46.866Z,11.90
2019-04-04T16:08:15.546Z,11.27
2019-04-04T16:10:43.493Z,12.00
2019-04-04T16:13:11.460Z,12.00
2019-04-04T16:15:39.510Z,12.27
2019-04-04T16:18:07.569Z,11.27
2019-04-04T16:20:35.525Z,11.90
2019-04-04T16:23:03.698Z,11.57
2019-04-04T16:25:31.659Z,13.33
2019-04-04T16:27:59.633Z,11.67
2019-04-04T16:30:27.714Z,11.70
2019-04-04T16:32:55.779Z,11.47
2019-04-04T16:35:23.840Z,11.60
2019-04-04T16:37:51.888Z,11.37
2019-04-04T16:40:20.835Z,11.73
2019-04-04T16:42:48.851Z,11.97
2019-04-04T16:45:16.824Z,11.37
2019-04-04T16:47:44.814Z,11.23
2019-04-04T16:50:12.796Z,11.50
2019-04-04T16:52:41.750Z,11.60
2019-04-04T16:55:09.843Z,11.50
2019-04-04T16:57:37.940Z,11.80
2019-04-04T17:00:06.517Z,11.67
2019-04-04T17:02:34.579Z,11.40
2019-04-04T17:05:02.628Z,12.00
2019-04-04T17:07:30.630Z,13.27
2019-04-04T17:09:58.681Z,12.77
2019-04-04T17:12:26.649Z,11.63
2019-04-04T17:14:54.712Z,11.97
2019-04-04T17:17:22.703Z,13.10
2019-04-04T17:19:51.111Z,13.07
2019-04-04T17:22:19.154Z,13.57
2019-04-04T17:24:47.331Z,13.00
2019-04-04T17:27:15.396Z,14.63
2019-04-04T17:29:43.393Z,13.03
2019-04-04T17:32:11.425Z,13.30
2019-04-04T17:34:39.872Z,11.90
2019-04-04T17:37:07.900Z,12.33
2019-04-04T17:39:36.424Z,12.37
2019-04-04T17:42:04.538Z,14.60
2019-04-04T17:44:32.948Z,13.87
2019-04-04T17:47:01.080Z,14.77
2019-04-04T17:49:29.526Z,13.70
2019-04-04T17:51:57.635Z,13.10
2019-04-04T17:54:25.815Z,13.63
2019-04-04T17:56:53.871Z,13.40
2019-04-04T17:59:21.857Z,12.80
2019-04-04T18:01:49.939Z,12.73
2019-04-04T18:04:17.969Z,12.80
2019-04-04T18:06:46.073Z,13.70
2019-04-04T18:09:14.159Z,13.40
2019-04-04T18:11:42.194Z,13.17
2019-04-04T18:14:10.164Z,14.10
2019-04-04T18:16:38.506Z,13.53
2019-04-04T18:19:06.433Z,12.90
2019-04-04T18:21:34.489Z,14.10
2019-04-04T18:24:02.476Z,11.57
2019-04-04T18:26:30.418Z,11.73
2019-04-04T18:28:58.417Z,12.00
2019-04-04T18:31:26.516Z,11.47
2019-04-04T18:33:54.456Z,11.47
2019-04-04T18:36:23.152Z,11.40
2019-04-04T18:38:51.237Z,11.67
2019-04-04T18:41:19.256Z,11.80
2019-04-04T18:43:47.302Z,13.27
2019-04-04T18:46:15.291Z,12.47
2019-04-04T18:48:43.298Z,12.23
2019-04-04T18:51:11.373Z,13.30
2019-04-04T18:53:39.462Z,11.97
2019-04-04T18:56:07.473Z,11.50
2019-04-04T18:58:35.486Z,12.60
2019-04-04T19:01:03.538Z,12.20
2019-04-04T19:03:31.621Z,12.10
2019-04-04T19:05:59.655Z,12.30
2019-04-04T19:08:27.660Z,13.20
2019-04-04T19:10:56.612Z,11.67
2019-04-04T19:13:24.707Z,11.90
2019-04-04T19:15:53.099Z,11.40
2019-04-04T19:18:21.473Z,12.17
2019-04-04T19:20:49.607Z,12.57
2019-04-04T19:23:17.619Z,11.83
2019-04-04T19:25:45.751Z,12.37
2019-04-04T19:28:13.765Z,11.87
2019-04-04T19:30:41.701Z,12.40
2019-04-04T19:33:09.717Z,11.80
2019-04-04T19:35:37.645Z,11.60
2019-04-04T19:38:05.647Z,11.77
2019-04-04T19:40:33.696Z,10.80
2019-04-04T19:43:01.785Z,11.07
2019-04-04T19:45:29.850Z,10.97
2019-04-04T19:47:57.920Z,11.70
2019-04-04T19:50:25.874Z,12.27
2019-04-04T19:52:53.843Z,10.60
2019-04-04T19:55:21.826Z,11.47
2019-04-04T19:57:49.883Z,12.00
2019-04-04T20:00:17.897Z,11.73
2019-04-04T20:02:45.933Z,11.47
2019-04-04T20:05:14.109Z,11.27
2019-04-04T20:07:42.161Z,12.23
2019-04-04T20:10:10.140Z,12.33
2019-04-04T20:12:38.125Z,12.03
2019-04-04T20:15:06.226Z,11.47
2019-04-04T20:17:34.258Z,12.90
2019-04-04T20:20:02.211Z,12.23
2019-04-04T20:22:30.278Z,11.03
2019-04-04T20:24:58.297Z,12.13
2019-04-04T20:27:26.365Z,11.80
2019-04-04T20:29:54.398Z,12.00
2019-04-04T20:32:22.374Z,11.43
2019-04-04T20:34:50.350Z,11.33
2019-04-04T20:37:18.358Z,12.10
2019-04-04T20:39:46.373Z,11.20
2019-04-04T20:42:14.358Z,11.97
2019-04-04T20:44:42.338Z,11.47
2019-04-04T20:47:10.281Z,11.37
2019-04-04T20:49:38.277Z,12.37
2019-04-04T20:52:06.402Z,12.30
2019-04-04T20:54:34.430Z,13.00
2019-04-04T20:57:02.544Z,13.73
2019-04-04T20:59:30.965Z,13.80
2019-04-04T21:01:59.174Z,13.30
2019-04-04T21:04:27.211Z,13.00
2019-04-04T21:06:55.335Z,14.27
2019-04-04T21:09:23.339Z,13.13
2019-04-04T21:11:51.432Z,13.60
2019-04-04T21:14:19.377Z,13.60
2019-04-04T21:16:47.357Z,13.27
2019-04-04T21:19:15.438Z,12.87
2019-04-04T21:21:43.515Z,15.03
2019-04-04T21:24:11.639Z,14.63
2019-04-04T21:26:39.638Z,14.60
2019-04-04T21:29:08.473Z,14.63
2019-04-04T21:31:38.387Z,14.07
2019-04-04T21:34:08.227Z,13.23
2019-04-04T21:36:38.377Z,14.03
2019-04-04T21:39:07.223Z,14.10
2019-04-04T21:41:35.243Z,13.00
2019-04-04T21:44:09.118Z,14.87
2019-04-04T21:46:33.048Z,14.90
2019-04-04T21:49:01.101Z,14.03
2019-04-04T21:51:29.080Z,13.40
2019-04-04T21:53:57.132Z,13.67
2019-04-04T21:56:25.125Z,14.13
2019-04-04T21:58:53.081Z,15.00
2019-04-04T22:01:21.373Z,15.17
2019-04-04T22:03:49.425Z,14.80
2019-04-04T22:06:17.525Z,14.53
2019-04-04T22:08:45.463Z,14.10
2019-04-04T22:11:13.459Z,14.20
2019-04-04T22:13:41.485Z,13.70
2019-04-04T22:16:09.466Z,14.43
2019-04-04T22:18:37.451Z,13.40
2019-04-04T22:21:05.496Z,13.07
2019-04-04T22:23:33.494Z,13.03
2019-04-04T22:26:01.532Z,12.97
2019-04-04T22:28:29.529Z,14.10
2019-04-04T22:30:57.577Z,13.10
2019-04-04T22:33:25.558Z,13.40
2019-04-04T22:35:53.592Z,12.70
2019-04-04T22:38:21.599Z,14.20
2019-04-04T22:40:49.627Z,14.10
2019-04-04T22:43:17.698Z,13.67
2019-04-04T22:45:45.667Z,13.83
2019-04-04T22:48:13.694Z,12.97
2019-04-04T22:50:41.832Z,12.90
2019-04-04T22:53:09.954Z,14.40
2019-04-04T22:55:37.902Z,13.30
2019-04-04T22:58:06.063Z,13.13
2019-04-04T23:00:34.532Z,13.97
2019-04-04T23:03:04.135Z,13.63
2019-04-04T23:05:32.174Z,13.63
2019-04-04T23:08:00.221Z,15.00
2019-04-04T23:10:28.212Z,13.43
2019-04-04T23:12:56.573Z,15.50
2019-04-04T23:15:24.677Z,14.50
2019-04-04T23:17:52.692Z,14.57
2019-04-04T23:20:20.807Z,13.53
2019-04-04T23:22:52.993Z,15.40
2019-04-04T23:25:18.485Z,14.97
2019-04-04T23:27:46.521Z,14.93
2019-04-04T23:30:14.569Z,13.50
2019-04-04T23:32:42.606Z,14.00
2019-04-04T23:35:10.610Z,13.03
2019-04-04T23:37:38.622Z,14.10
2019-04-04T23:40:06.854Z,14.83
2019-04-04T23:42:34.861Z,15.80
2019-04-04T23:45:02.902Z,15.07
2019-04-04T23:47:42.139Z,14.47
2019-04-04T23:50:00.662Z,14.43
2019-04-04T23:52:28.681Z,14.97
2019-04-04T23:54:56.744Z,14.27
2019-04-04T23:57:24.853Z,14.10
2019-04-04T23:59:53.025Z,13.43
